ADDS TAF Data INFO
IDs: Format: Raw Decoded Include METARs

Data at: 1312 UTC 29 Mar 2017

Region: TOP
KATL 291120Z 2912/3018 03003KT P6SM FEW250
  FM291500 10005KT P6SM SCT040 SCT250
  FM291900 20005KT P6SM VCSH SCT050 SCT250
  FM300000 14004KT P6SM SCT250
  FM300900 12007KT P6SM OVC035
  FM301200 12007KT P6SM OVC015
  FM301600 15010KT P6SM OVC035


KBOS 291122Z 2912/3018 34012KT P6SM OVC008
  FM291500 34010G19KT P6SM BKN025
  FM291800 33012G24KT P6SM SCT040
  FM301300 32011G18KT P6SM SKC


KBWI 291120Z 2912/3018 34009KT P6SM SCT040
  FM291400 34010G16KT P6SM FEW040
  FM300100 02007KT P6SM FEW040
  FM301300 VRB03KT P6SM BKN050


KCLE 291300Z 2913/3018 05005KT P6SM SCT025
  FM291500 03010KT P6SM SCT025
  FM300600 08010KT P6SM OVC120
  FM301600 10012KT P6SM BKN060 OVC120


KCLT 291130Z 2912/3012 01005KT P6SM FEW060
  FM291800 07006KT P6SM SCT050
  FM292300 10003KT P6SM BKN045
  FM300600 11006KT P6SM BKN020
  FM300900 12006KT P6SM BKN015


KCVG 291132Z 2912/3018 05010KT P6SM OVC012
  TEMPO 2912/2914 SCT012
  FM291400 07010KT P6SM BKN025
  FM292000 08010KT P6SM BKN050
  FM292200 08010KT P6SM SCT250
  FM300500 10011KT P6SM BKN150
  FM301400 10010KT P6SM VCSH OVC050


KDCA 291121Z 2912/3012 36008KT P6SM BKN025
  FM291300 35009G15KT P6SM SCT035
  FM291500 35009G15KT P6SM FEW040
  FM300000 02005KT P6SM FEW050


KDEN 291142Z 2912/3018 35011KT 6SM -SNRA BR OVC005
  TEMPO 2912/2914 2SM -SN BR OVC003
  FM291400 02013KT 5SM BR VCSH BKN006 OVC015
  FM291600 04014KT P6SM BKN025 OVC040
  FM291900 02013G22KT P6SM SCT040 BKN100
  FM300100 07008KT P6SM SCT060 SCT100
  FM300400 14008KT P6SM FEW120 SCT220
  FM300700 20011KT P6SM FEW140 BKN220


KDFW 291128Z 2912/3018 13011KT P6SM FEW035 BKN300
  FM291600 20014KT P6SM SCT300
  FM300000 30016KT P6SM BKN080


KDTW 291125Z 2912/3018 01005KT P6SM SKC
  FM291500 04008KT P6SM FEW035 BKN150
  FM300100 03006KT P6SM OVC120
  FM301000 05011KT P6SM OVC080
  FM301400 06013G22KT P6SM SCT050 OVC070


KEWR 291139Z 2912/3018 34015G23KT P6SM SCT040 SCT250
  TEMPO 2912/2914 BKN025
  FM292300 35012G18KT P6SM FEW250
  FM300100 35012KT P6SM FEW250
  FM300700 35008KT P6SM FEW250


KFLL 291137Z 2912/3012 14005KT P6SM SCT030
  FM291600 12010KT P6SM SCT035 SCT070
  FM292300 13006KT P6SM SKC


KIAD 291121Z 2912/3018 35009KT P6SM BKN025
  FM291400 35009G15KT P6SM SCT035
  FM291600 35008G15KT P6SM FEW040
  FM300000 01005KT P6SM FEW050
  FM300900 02005KT P6SM BKN050


KIAH 291128Z 2912/3018 16006KT P6SM SCT025 BKN040
  FM291400 18010KT P6SM VCTS BKN025CB BKN040 OVC250
  TEMPO 2914/2916 VRB10G25KT 3SM TSRA BKN015CB
  FM291700 18008KT P6SM BKN050 OVC120
  FM292200 20008KT P6SM VCTS BKN035CB BKN250
  FM300200 24006KT P6SM SCT050 BKN250
  FM300900 30010KT P6SM BKN250


KJFK 291139Z 2912/3018 34016G24KT P6SM SCT040 SCT250
  TEMPO 2912/2914 BKN025
  FM292300 35012G18KT P6SM FEW250
  FM300200 35012KT P6SM FEW250
  FM300700 35009KT P6SM FEW250


KLAS 291123Z 2912/3012 35006KT P6SM SCT250
  FM291700 03007KT P6SM SCT250
  FM292000 VRB05KT P6SM BKN250
  FM300400 21006KT P6SM BKN250


KLAX 291128Z 2912/3018 12005KT P6SM SKC
  FM291500 VRB03KT P6SM SKC
  FM292000 26010KT P6SM SKC
  FM300400 VRB03KT P6SM SKC
  FM301200 12005KT 4SM BR SCT007
  FM301600 VRB03KT P6SM SKC


KLGA 291139Z 2912/3012 34016G24KT P6SM SCT040 SCT250
  TEMPO 2912/2914 BKN025
  FM292300 35012G18KT P6SM FEW250
  FM300200 35012KT P6SM FEW250
  FM300700 35009KT P6SM FEW250


KMCO 291120Z 2912/3012 VRB03KT P6SM SKC
  FM291500 VRB05KT P6SM FEW045
  FM292100 13008KT P6SM SCT050
  FM300100 VRB04KT P6SM FEW060


KMDW 291247Z 2913/3012 05007KT 3SM BR SCT004 OVC200
  TEMPO 2913/2915 1SM BR BKN004 OVC200
  FM291500 07011KT 5SM BR BKN007 OVC200
  FM291700 06013KT P6SM FEW008 BKN120
  FM292100 07014G22KT P6SM SCT060 BKN100
  FM300100 07011KT P6SM SCT030 OVC060
  FM300800 08016G25KT 4SM -SHRA BKN030 OVC050
  PROB30 3010/3012 2SM -TSRA OVC030CB


KMEM 291120Z 2912/3012 12008KT P6SM SCT050
  FM291400 14010KT P6SM SCT040 SCT250
  FM291800 16012G19KT P6SM FEW050 BKN250
  FM300000 15010KT P6SM FEW150 BKN200
  FM300400 16011G18KT P6SM BKN070
  FM300800 17013G21KT P6SM VCTS BKN050CB


KMIA 291137Z 2912/3012 VRB02KT P6SM FEW025
  FM291600 13010KT P6SM SCT035 SCT070
  FM292300 12004KT P6SM SKC


KMSP 291120Z 2912/3018 VRB04KT P6SM BKN250
  FM291500 11007KT P6SM SCT120 BKN200
  FM300000 10006KT P6SM SCT020 OVC040
  PROB30 3000/3004 6SM -RA BR BKN030
  FM300400 09005KT P6SM SCT012 BKN020
  PROB30 3004/3008 6SM -RA BR BKN012


KORD 291304Z 2913/3018 06007KT 4SM BR SCT003 OVC200
  TEMPO 2913/2915 BKN003 OVC200
  FM291500 07011KT 5SM BR SCT006 OVC200
  FM291700 06013KT P6SM FEW008 BKN120
  FM292100 07014G22KT P6SM SCT060 BKN100
  FM300100 07011KT P6SM SCT030 OVC060
  FM300800 08016G25KT 4SM -SHRA BKN030 OVC050
  PROB30 3010/3013 2SM -TSRA OVC030CB


KPDX 291141Z 2912/3012 17012KT P6SM -SHRA BKN015 BKN025 OVC040
  FM292100 19012KT P6SM -SHRA BKN025 BKN035 OVC045
  FM300400 25010KT P6SM -SHRA SCT025 BKN040


KPHL 291120Z 2912/3018 34015KT P6SM OVC025
  FM291400 34013G20KT P6SM SCT035
  FM292300 34011KT P6SM SKC
  FM301200 03008KT P6SM BKN150


KPHX 291128Z 2912/3012 VRB04KT P6SM SKC
  FM291500 05006KT P6SM SKC
  FM291900 30010KT P6SM SKC
  FM300000 27006KT P6SM SKC
  FM300800 11005KT P6SM FEW250


KPIT 291310Z 2913/3018 03005KT P6SM OVC020
  FM291330 36005KT P6SM BKN020
  FM291500 01006KT P6SM SCT035
  FM300900 07006KT P6SM BKN120


KSAN 291120Z 2912/3018 VRB04KT P6SM SKC
  FM291900 29009KT P6SM SKC
  FM300200 VRB04KT P6SM SKC
  FM301100 18005KT 5SM BR SCT005


KSEA 291125Z 2912/3018 12007KT P6SM -RA SCT020 OVC035
  TEMPO 2912/2916 5SM -RA BR BKN020 OVC035
  FM291800 17013KT P6SM -RA BKN028 OVC050
  FM292100 20015G23KT P6SM -SHRA BKN035 OVC060
  FM300000 22012KT P6SM VCSH SCT035 BKN060 BKN200
  FM300900 22009KT P6SM VCSH OVC025
  PROB30 3009/3015 -SHRA


KSFO 291130Z 2912/3018 28013KT P6SM FEW200
  FM291900 29017G25KT P6SM FEW012 SCT150
  FM300400 29012KT P6SM SCT010 BKN150
  FM300800 29010KT 6SM -DZ BR BKN008 OVC010
  FM301300 30012KT P6SM SCT010 SCT150
  FM301700 32008KT P6SM FEW012


KSLC 291120Z 2912/3018 14006KT P6SM SKC
  FM291900 33007KT P6SM SCT120
  FM300300 15006KT P6SM SCT120 BKN150


KSTL 291241Z 2913/3018 09010G16KT P6SM BKN035
  TEMPO 2913/2915 BKN025
  FM291500 10012G20KT P6SM VCSH BKN035
  FM291800 11012G19KT P6SM OVC035
  FM292200 11012G17KT P6SM OVC025
  FM300600 12012KT 5SM -SHRA VCTS BKN015CB
  FM301000 14008KT P6SM VCSH OVC008
  FM301400 14011KT P6SM VCSH BKN018


KTPA 291122Z 2912/3012 VRB05KT P6SM SKC
  FM291600 19006KT P6SM FEW035 FEW250
  FM292000 24008KT P6SM SCT050 SCT250
  FM300000 33006KT P6SM FEW060 SCT250
  FM300300 VRB04KT P6SM SCT250



Page loaded:  13:12 UTC  |   06:12 AM Pacific  |   07:12 AM Mountain  |   08:12 AM Central  |   09:12 AM Eastern

 

ADVISORIES

FORECASTS

FORECASTS

OBSERVATIONS

USER TOOLS

ABOUT US